Time;durP1;ratioP1;P1;durP2;ratioP2;P2;SDS_P1;SDS_P2;PMS_P1;PMS_P2;Temp;Humidity;BMP_temperature;BMP_pressure;BME280_temperature;BME280_humidity;BME280_pressure;Samples;Min_cycle;Max_cycle;Signal;HPM_P1;HPM_P2
2023/10/16 00:01:50;;;;;;;;;;;;;;;;;;5052385;28;817;-66
2023/10/16 00:04:18;;;;;;;;;;;;;;;;;;5051928;28;1003;-67
2023/10/16 00:06:49;;;;;;;;;;;;;;;;;;5052308;28;870;-66
2023/10/16 00:09:14;;;;;;;;;;;;;;;;;;5035950;28;1427;-66
2023/10/16 00:11:39;;;;;;;;;;;;;;;;;;5051487;28;833;-66
2023/10/16 00:14:18;;;;;;;;;;;;;;;;;;5052295;28;840;-67
2023/10/16 00:16:44;;;;;;;;;;;;;;;;;;5052146;28;1910;-66
2023/10/16 00:19:10;;;;;;;;;;;;;;;;;;5052573;28;825;-67
2023/10/16 00:21:43;;;;;;;;;;;;;;;;;;5052539;28;912;-67
2023/10/16 00:24:09;;;;;;;;;;;;;;;;;;5052854;28;833;-68
2023/10/16 00:26:35;;;;;;;;;;;;;;;;;;5051329;28;1285;-67
2023/10/16 00:31:44;;;;;;;;;;;;;;;;;;5051771;28;675;-67
2023/10/16 00:34:09;;;;;;;;;;;;;;;;;;5051469;28;929;-67
2023/10/16 00:36:35;;;;;;;;;;;;;;;;;;5052572;28;1906;-67
2023/10/16 00:39:12;;;;;;;;;;;;;;;;;;5051890;28;813;-66
2023/10/16 00:41:38;;;;;;;;;;;;;;;;;;5052556;28;904;-66
2023/10/16 00:44:04;;;;;;;;;;;;;;;;;;5050985;28;948;-67
2023/10/16 00:46:30;;;;;;;;;;;;;;;;;;5052783;28;880;-67
2023/10/16 00:48:56;;;;;;;;;;;;;;;;;;5050883;28;1354;-67
2023/10/16 00:51:22;;;;;;;;;;;;;;;;;;5051777;28;1253;-67
2023/10/16 00:53:47;;;;;;;;;;;;;;;;;;5050503;28;901;-66
2023/10/16 00:56:14;;;;;;;;;;;;;;;;;;5052238;28;1955;-67
2023/10/16 00:58:42;;;;;;;;;;;;;;;;;;5052288;28;857;-68
2023/10/16 01:01:14;;;;;;;;;;;;;;;;;;5052022;28;797;-67
2023/10/16 01:03:45;;;;;;;;;;;;;;;;;;5052056;28;996;-68
2023/10/16 01:06:17;;;;;;;;;;;;;;;;;;5050423;28;1310;-66
2023/10/16 01:08:49;;;;;;;;;;;;;;;;;;5051780;28;864;-66
2023/10/16 01:11:15;;;;;;;;;;;;;;;;;;5050519;28;920;-68
2023/10/16 01:13:41;;;;;;;;;;;;;;;;;;5051456;28;943;-67
2023/10/16 01:16:07;;;;;;;;;;;;;;;;;;5051218;28;1926;-67
2023/10/16 01:18:34;;;;;;;;;;;;;;;;;;5051167;28;837;-67
2023/10/16 01:21:04;;;;;;;;;;;;;;;;;;5052126;28;845;-67
2023/10/16 01:23:30;;;;;;;;;;;;;;;;;;5052589;28;959;-67
2023/10/16 01:25:55;;;;;;;;;;;;;;;;;;5052243;28;880;-66
2023/10/16 01:28:21;;;;;;;;;;;;;;;;;;5052345;28;829;-67
2023/10/16 01:30:47;;;;;;;;;;;;;;;;;;5051079;28;841;-67
2023/10/16 01:33:19;;;;;;;;;;;;;;;;;;5051014;28;1398;-67
2023/10/16 01:35:48;;;;;;;;;;;;;;;;;;5050472;28;889;-67
2023/10/16 01:38:16;;;;;;;;;;;;;;;;;;5051645;28;1902;-66
2023/10/16 01:41:02;;;;;;;;;;;;;;;;;;5050927;28;888;-67
2023/10/16 01:43:37;;;;;;;;;;;;;;;;;;5051792;28;916;-67
2023/10/16 01:46:09;;;;;;;;;;;;;;;;;;5049196;28;1296;-67
2023/10/16 01:48:35;;;;;;;;;;;;;;;;;;5051279;28;923;-67
2023/10/16 01:51:01;;;;;;;;;;;;;;;;;;5049358;28;912;-68
2023/10/16 01:53:26;;;;;;;;;;;;;;;;;;5050011;28;920;-67
2023/10/16 01:55:54;;;;;;;;;;;;;;;;;;5050493;28;820;-67
2023/10/16 01:58:21;;;;;;;;;;;;;;;;;;5048920;28;1882;-67
2023/10/16 02:00:47;;;;;;;;;;;;;;;;;;5050491;28;844;-67
2023/10/16 02:03:12;;;;;;;;;;;;;;;;;;5051157;28;861;-66
2023/10/16 02:05:41;;;;;;;;;;;;;;;;;;5049655;28;817;-68
2023/10/16 02:08:07;;;;;;;;;;;;;;;;;;5050766;28;948;-67
2023/10/16 02:10:32;;;;;;;;;;;;;;;;;;5049927;28;812;-67
2023/10/16 02:12:58;;;;;;;;;;;;;;;;;;5048638;28;1062;-67
2023/10/16 02:15:23;;;;;;;;;;;;;;;;;;5051205;28;896;-66
2023/10/16 02:17:49;;;;;;;;;;;;;;;;;;5049867;28;1965;-68
2023/10/16 02:20:16;;;;;;;;;;;;;;;;;;5051492;28;873;-67
2023/10/16 02:22:41;;;;;;;;;;;;;;;;;;5049457;28;1309;-67
2023/10/16 02:25:13;;;;;;;;;;;;;;;;;;5050811;28;966;-67
2023/10/16 02:27:38;;;;;;;;;;;;;;;;;;5049673;28;1285;-67
2023/10/16 02:33:12;;;;;;;;;;;;;;;;;;5050257;28;900;-67
2023/10/16 02:35:37;;;;;;;;;;;;;;;;;;5050607;28;1097;-67
2023/10/16 02:38:02;;;;;;;;;;;;;;;;;;5049463;28;1898;-67
2023/10/16 02:40:32;;;;;;;;;;;;;;;;;;5051040;28;845;-67
2023/10/16 02:43:01;;;;;;;;;;;;;;;;;;5051654;28;900;-67
2023/10/16 02:45:27;;;;;;;;;;;;;;;;;;5037624;28;1429;-67
2023/10/16 02:47:53;;;;;;;;;;;;;;;;;;5036177;28;1275;-67
2023/10/16 02:50:19;;;;;;;;;;;;;;;;;;5053318;28;1299;-67
2023/10/16 02:52:45;;;;;;;;;;;;;;;;;;5054098;28;845;-67
2023/10/16 02:55:11;;;;;;;;;;;;;;;;;;5054070;28;943;-67
2023/10/16 02:57:40;;;;;;;;;;;;;;;;;;5052814;28;1967;-66
2023/10/16 03:00:07;;;;;;;;;;;;;;;;;;5052602;28;1383;-66
2023/10/16 03:02:34;;;;;;;;;;;;;;;;;;5054925;28;860;-67
2023/10/16 03:05:32;;;;;;;;;;;;;;;;;;5052988;28;1487;-67
2023/10/16 03:07:52;;;;;;;;;;;;;;;;;;5052846;28;1300;-67
2023/10/16 03:10:17;;;;;;;;;;;;;;;;;;5055018;28;972;-67
2023/10/16 03:12:44;;;;;;;;;;;;;;;;;;5054072;28;793;-66
2023/10/16 03:15:15;;;;;;;;;;;;;;;;;;5054507;28;845;-67
2023/10/16 03:17:41;;;;;;;;;;;;;;;;;;5054695;28;1962;-66
2023/10/16 03:20:19;;;;;;;;;;;;;;;;;;5053916;28;1157;-67
2023/10/16 03:22:46;;;;;;;;;;;;;;;;;;5052404;28;1317;-66
2023/10/16 03:25:25;;;;;;;;;;;;;;;;;;5052971;28;927;-65
2023/10/16 03:27:51;;;;;;;;;;;;;;;;;;5053429;28;968;-66
2023/10/16 03:30:17;;;;;;;;;;;;;;;;;;5052565;28;940;-66
2023/10/16 03:32:42;;;;;;;;;;;;;;;;;;5051787;28;1271;-66
2023/10/16 03:35:09;;;;;;;;;;;;;;;;;;5053027;28;955;-67
2023/10/16 03:37:35;;;;;;;;;;;;;;;;;;5053170;28;1910;-66
2023/10/16 03:40:07;;;;;;;;;;;;;;;;;;5052770;28;860;-67
2023/10/16 03:42:33;;;;;;;;;;;;;;;;;;5053321;28;928;-66
2023/10/16 03:45:01;;;;;;;;;;;;;;;;;;5051580;28;1070;-68
2023/10/16 03:47:30;;;;;;;;;;;;;;;;;;5052474;28;1498;-67
2023/10/16 03:49:55;;;;;;;;;;;;;;;;;;5052688;28;1183;-67
2023/10/16 03:52:20;;;;;;;;;;;;;;;;;;5051914;28;1344;-67
2023/10/16 03:54:46;;;;;;;;;;;;;;;;;;5052351;28;895;-67
2023/10/16 03:57:11;;;;;;;;;;;;;;;;;;5052507;28;1897;-66
2023/10/16 03:59:38;;;;;;;;;;;;;;;;;;5053141;28;896;-67
2023/10/16 04:02:04;;;;;;;;;;;;;;;;;;5052917;28;895;-66
2023/10/16 04:04:29;;;;;;;;;;;;;;;;;;5053380;28;903;-66
2023/10/16 04:06:58;;;;;;;;;;;;;;;;;;5051890;28;910;-66
2023/10/16 04:09:32;;;;;;;;;;;;;;;;;;5053786;28;916;-67
2023/10/16 04:11:58;;;;;;;;;;;;;;;;;;5052623;28;908;-66
2023/10/16 04:14:44;;;;;;;;;;;;;;;;;;5052472;28;1235;-66
2023/10/16 04:17:11;;;;;;;;;;;;;;;;;;5052590;28;1967;-67
2023/10/16 04:19:37;;;;;;;;;;;;;;;;;;5052991;28;876;-67
2023/10/16 04:22:16;;;;;;;;;;;;;;;;;;5052176;28;848;-67
2023/10/16 04:24:44;;;;;;;;;;;;;;;;;;5052869;28;876;-66
2023/10/16 04:32:27;;;;;;;;;;;;;;;;;;5052957;28;697;-67
2023/10/16 04:34:53;;;;;;;;;;;;;;;;;;5050680;28;1274;-67
2023/10/16 04:37:40;;;;;;;;;;;;;;;;;;5050725;28;1961;-66
2023/10/16 04:48:06;;;;;;;;;;;;;;;;;;5052441;28;793;-66
2023/10/16 05:03:23;;;;;;;;;;;;;;;;;;5072035;28;747;-66
2023/10/16 05:08:48;;;;;;;;;;;;;;;;;;5071874;28;723;-67
2023/10/16 06:16:17;;;;;;;;;;;;;;;;;;5070481;28;1989;-65
2023/10/16 06:18:46;;;;;;;;;;;;;;;;;;5073949;28;816;-67
2023/10/16 06:21:14;;;;;;;;;;;;;;;;;;5074384;28;805;-67
2023/10/16 06:23:47;;;;;;;;;;;;;;;;;;5090639;28;1194;-68
2023/10/16 06:26:14;;;;;;;;;;;;;;;;;;5073785;28;959;-68
2023/10/16 06:28:47;;;;;;;;;;;;;;;;;;5075173;28;829;-68
2023/10/16 06:31:13;;;;;;;;;;;;;;;;;;5072697;28;1344;-68
2023/10/16 06:33:40;;;;;;;;;;;;;;;;;;5074618;28;833;-68
2023/10/16 06:36:06;;;;;;;;;;;;;;;;;;5074157;28;869;-68
2023/10/16 06:38:31;;;;;;;;;;;;;;;;;;5073005;28;1961;-67
2023/10/16 06:40:57;;;;;;;;;;;;;;;;;;5072592;28;1298;-67
2023/10/16 06:43:26;;;;;;;;;;;;;;;;;;5073325;28;1318;-68
2023/10/16 06:46:09;;;;;;;;;;;;;;;;;;5074336;28;901;-67
2023/10/16 06:48:37;;;;;;;;;;;;;;;;;;5074352;28;919;-67
2023/10/16 06:51:04;;;;;;;;;;;;;;;;;;5073825;28;833;-67
2023/10/16 06:53:30;;;;;;;;;;;;;;;;;;5073123;28;1499;-67
2023/10/16 06:55:55;;;;;;;;;;;;;;;;;;5074401;28;947;-67
2023/10/16 06:58:21;;;;;;;;;;;;;;;;;;5073397;28;1963;-67
2023/10/16 07:00:49;;;;;;;;;;;;;;;;;;5073849;28;893;-67
2023/10/16 07:03:15;;;;;;;;;;;;;;;;;;5074096;28;841;-67
2023/10/16 07:05:43;;;;;;;;;;;;;;;;;;5075155;28;880;-68
2023/10/16 07:08:16;;;;;;;;;;;;;;;;;;5074342;28;961;-67
2023/10/16 07:10:42;;;;;;;;;;;;;;;;;;5074345;28;884;-67
2023/10/16 07:13:08;;;;;;;;;;;;;;;;;;5073815;28;860;-67
2023/10/16 07:15:34;;;;;;;;;;;;;;;;;;5073117;28;1491;-67
2023/10/16 07:18:04;;;;;;;;;;;;;;;;;;5074220;28;1980;-67
2023/10/16 07:20:30;;;;;;;;;;;;;;;;;;5074453;28;837;-67
2023/10/16 07:23:02;;;;;;;;;;;;;;;;;;5072702;28;837;-68
2023/10/16 07:28:11;;;;;;;;;;;;;;;;;;5073507;28;704;-68
2023/10/16 07:30:37;;;;;;;;;;;;;;;;;;5071785;28;1374;-69
2023/10/16 07:33:02;;;;;;;;;;;;;;;;;;5073625;28;812;-68
2023/10/16 07:35:27;;;;;;;;;;;;;;;;;;5074227;28;896;-68
2023/10/16 07:37:58;;;;;;;;;;;;;;;;;;5074058;28;1962;-70
2023/10/16 07:40:25;;;;;;;;;;;;;;;;;;5074236;28;903;-68
2023/10/16 07:42:52;;;;;;;;;;;;;;;;;;5073691;28;935;-68
2023/10/16 07:45:18;;;;;;;;;;;;;;;;;;5073503;28;864;-69
2023/10/16 07:47:47;;;;;;;;;;;;;;;;;;5073572;28;849;-68
2023/10/16 07:50:12;;;;;;;;;;;;;;;;;;5072678;28;907;-68
2023/10/16 07:52:40;;;;;;;;;;;;;;;;;;5053868;28;1231;-68
2023/10/16 07:55:09;;;;;;;;;;;;;;;;;;5052670;28;1156;-68
2023/10/16 07:57:35;;;;;;;;;;;;;;;;;;5044925;28;1902;-68
2023/10/16 08:00:13;;;;;;;;;;;;;;;;;;5062943;28;1160;-68
2023/10/16 08:02:44;;;;;;;;;;;;;;;;;;5068718;28;1037;-67
2023/10/16 08:05:15;;;;;;;;;;;;;;;;;;5067587;28;1140;-67
2023/10/16 08:07:46;;;;;;;;;;;;;;;;;;5054794;28;1269;-67
2023/10/16 08:10:45;;;;;;;;;;;;;;;;;;5048547;28;1387;-68
2023/10/16 08:13:11;;;;;;;;;;;;;;;;;;5050497;28;1306;-67
2023/10/16 08:15:44;;;;;;;;;;;;;;;;;;5051248;28;1395;-67
2023/10/16 08:18:11;;;;;;;;;;;;;;;;;;5034398;28;1902;-67
2023/10/16 08:21:24;;;;;;;;;;;;;;;;;;5052592;28;928;-68
2023/10/16 08:23:22;;;;;;;;;;;;;;;;;;5044219;28;1200;-67
2023/10/16 08:25:47;;;;;;;;;;;;;;;;;;5052200;28;841;-67
2023/10/16 08:28:24;;;;;;;;;;;;;;;;;;5053721;28;1204;-67
2023/10/16 08:30:51;;;;;;;;;;;;;;;;;;5072071;28;912;-67
2023/10/16 08:33:17;;;;;;;;;;;;;;;;;;5071303;28;856;-67
2023/10/16 08:35:42;;;;;;;;;;;;;;;;;;5071439;28;852;-67
2023/10/16 08:38:13;;;;;;;;;;;;;;;;;;5071668;28;1902;-67
2023/10/16 08:40:42;;;;;;;;;;;;;;;;;;5070972;28;1191;-67
2023/10/16 08:43:09;;;;;;;;;;;;;;;;;;5071789;28;825;-66
2023/10/16 08:45:39;;;;;;;;;;;;;;;;;;5072257;28;944;-67
2023/10/16 08:48:08;;;;;;;;;;;;;;;;;;5071636;28;884;-66
2023/10/16 08:50:42;;;;;;;;;;;;;;;;;;5071703;28;1425;-66
2023/10/16 08:55:57;;;;;;;;;;;;;;;;;;5073345;28;741;-67
2023/10/16 08:58:23;;;;;;;;;;;;;;;;;;5072749;28;1902;-66
2023/10/16 09:00:49;;;;;;;;;;;;;;;;;;5071598;28;1208;-67
2023/10/16 09:03:16;;;;;;;;;;;;;;;;;;5072541;28;895;-66
2023/10/16 09:05:43;;;;;;;;;;;;;;;;;;5072843;28;1203;-66
2023/10/16 09:08:14;;;;;;;;;;;;;;;;;;5072841;28;1032;-67
2023/10/16 09:10:40;;;;;;;;;;;;;;;;;;5071556;28;904;-67
2023/10/16 09:13:15;;;;;;;;;;;;;;;;;;5071447;28;845;-67
2023/10/16 09:15:48;;;;;;;;;;;;;;;;;;5072038;28;884;-68
2023/10/16 09:18:14;;;;;;;;;;;;;;;;;;5071094;28;1973;-67
2023/10/16 09:20:42;;;;;;;;;;;;;;;;;;5071953;28;841;-68
2023/10/16 09:23:13;;;;;;;;;;;;;;;;;;5071200;28;895;-68
2023/10/16 09:25:46;;;;;;;;;;;;;;;;;;5070311;28;1322;-68
2023/10/16 09:28:16;;;;;;;;;;;;;;;;;;5070471;28;824;-69
2023/10/16 09:30:42;;;;;;;;;;;;;;;;;;5070588;28;939;-66
2023/10/16 09:33:10;;;;;;;;;;;;;;;;;;5068828;28;1186;-68
2023/10/16 09:35:43;;;;;;;;;;;;;;;;;;5071292;28;871;-68
2023/10/16 09:38:17;;;;;;;;;;;;;;;;;;5070547;28;1961;-69
2023/10/16 09:40:44;;;;;;;;;;;;;;;;;;5070026;28;1220;-67
2023/10/16 09:43:24;;;;;;;;;;;;;;;;;;5070607;28;853;-67
2023/10/16 09:45:49;;;;;;;;;;;;;;;;;;5070296;28;927;-67
2023/10/16 09:48:19;;;;;;;;;;;;;;;;;;5070521;28;967;-68
2023/10/16 09:50:45;;;;;;;;;;;;;;;;;;5071380;28;853;-68
2023/10/16 09:53:11;;;;;;;;;;;;;;;;;;5068843;28;1357;-68
2023/10/16 09:55:44;;;;;;;;;;;;;;;;;;5069694;28;1313;-68
2023/10/16 09:58:10;;;;;;;;;;;;;;;;;;5070600;28;1910;-68
2023/10/16 10:00:39;;;;;;;;;;;;;;;;;;5052781;28;1884;-68
2023/10/16 10:03:07;;;;;;;;;;;;;;;;;;5070565;28;750;-68
2023/10/16 10:05:40;;;;;;;;;;;;;;;;;;5070941;28;877;-68
2023/10/16 10:08:17;;;;;;;;;;;;;;;;;;5070628;28;996;-69
2023/10/16 10:13:34;;;;;;;;;;;;;;;;;;5070405;28;665;-68
2023/10/16 10:16:06;;;;;;;;;;;;;;;;;;5070078;28;1642;-68
2023/10/16 10:18:32;;;;;;;;;;;;;;;;;;5051708;28;1911;-67
2023/10/16 10:20:58;;;;;;;;;;;;;;;;;;5053286;28;1289;-67
2023/10/16 10:23:24;;;;;;;;;;;;;;;;;;5069728;28;1452;-67
2023/10/16 10:25:53;;;;;;;;;;;;;;;;;;5069889;28;1254;-68
2023/10/16 10:28:22;;;;;;;;;;;;;;;;;;5070363;28;900;-67
2023/10/16 10:30:49;;;;;;;;;;;;;;;;;;5071297;28;993;-68
2023/10/16 10:33:38;;;;;;;;;;;;;;;;;;5070704;28;920;-67
2023/10/16 10:36:43;;;;;;;;;;;;;;;;;;5071350;28;907;-68
2023/10/16 10:39:21;;;;;;;;;;;;;;;;;;5029131;28;888;-67
2023/10/16 10:41:58;;;;;;;;;;;;;;;;;;5029191;28;869;-67
2023/10/16 10:44:29;;;;;;;;;;;;;;;;;;5047651;28;1146;-67
2023/10/16 10:46:55;;;;;;;;;;;;;;;;;;5072725;28;951;-68
2023/10/16 10:49:33;;;;;;;;;;;;;;;;;;5071838;28;1074;-67
2023/10/16 10:52:00;;;;;;;;;;;;;;;;;;5071616;28;825;-67
2023/10/16 10:54:26;;;;;;;;;;;;;;;;;;5071997;28;833;-67
2023/10/16 10:56:53;;;;;;;;;;;;;;;;;;5069895;28;2039;-68
2023/10/16 10:59:39;;;;;;;;;;;;;;;;;;5069465;28;1187;-67
2023/10/16 11:04:42;;;;;;;;;;;;;;;;;;5072365;28;706;-67
2023/10/16 11:10:02;;;;;;;;;;;;;;;;;;5064850;28;1119;-68
2023/10/16 11:12:30;;;;;;;;;;;;;;;;;;5072830;28;1306;-68
2023/10/16 11:14:56;;;;;;;;;;;;;;;;;;5074607;28;840;-68
2023/10/16 11:17:32;;;;;;;;;;;;;;;;;;5073949;28;1906;-68
2023/10/16 11:19:57;;;;;;;;;;;;;;;;;;5074492;28;821;-67
2023/10/16 11:22:31;;;;;;;;;;;;;;;;;;5073737;28;931;-67
2023/10/16 11:24:57;;;;;;;;;;;;;;;;;;5073061;28;1431;-67
2023/10/16 11:27:23;;;;;;;;;;;;;;;;;;5072411;28;876;-68
2023/10/16 11:29:51;;;;;;;;;;;;;;;;;;5073847;28;915;-68
2023/10/16 11:32:17;;;;;;;;;;;;;;;;;;5071984;28;1264;-67
2023/10/16 11:34:44;;;;;;;;;;;;;;;;;;5074001;28;887;-67
2023/10/16 11:37:13;;;;;;;;;;;;;;;;;;5072130;28;1894;-67
2023/10/16 11:39:38;;;;;;;;;;;;;;;;;;5072089;28;1341;-67
2023/10/16 11:42:04;;;;;;;;;;;;;;;;;;5073045;28;857;-67
2023/10/16 11:44:32;;;;;;;;;;;;;;;;;;5072018;28;1415;-67
2023/10/16 11:47:01;;;;;;;;;;;;;;;;;;5074178;28;840;-67
2023/10/16 11:49:31;;;;;;;;;;;;;;;;;;5072328;28;1232;-67
2023/10/16 11:52:19;;;;;;;;;;;;;;;;;;5072474;28;1282;-67
2023/10/16 11:54:45;;;;;;;;;;;;;;;;;;5072118;28;1155;-67
2023/10/16 11:57:13;;;;;;;;;;;;;;;;;;5072834;28;1973;-67
2023/10/16 11:59:38;;;;;;;;;;;;;;;;;;5055980;28;1451;-67
2023/10/16 12:02:14;;;;;;;;;;;;;;;;;;5072989;28;951;-67
2023/10/16 12:04:40;;;;;;;;;;;;;;;;;;5073297;28;868;-67
2023/10/16 12:07:07;;;;;;;;;;;;;;;;;;5071897;28;1205;-67
2023/10/16 12:09:37;;;;;;;;;;;;;;;;;;5072198;28;1239;-67
2023/10/16 12:12:06;;;;;;;;;;;;;;;;;;5072728;28;880;-67
2023/10/16 12:14:35;;;;;;;;;;;;;;;;;;5073372;28;880;-67
2023/10/16 12:17:06;;;;;;;;;;;;;;;;;;5073083;28;1960;-67
2023/10/16 12:19:31;;;;;;;;;;;;;;;;;;5073508;28;896;-68
2023/10/16 12:22:00;;;;;;;;;;;;;;;;;;5072413;28;924;-67
2023/10/16 12:24:26;;;;;;;;;;;;;;;;;;5072037;28;1403;-67
2023/10/16 12:26:52;;;;;;;;;;;;;;;;;;5072127;28;741;-67
2023/10/16 12:29:17;;;;;;;;;;;;;;;;;;5072655;28;861;-67
2023/10/16 12:31:43;;;;;;;;;;;;;;;;;;5055262;28;1427;-67
2023/10/16 12:34:11;;;;;;;;;;;;;;;;;;5072483;28;1070;-67
2023/10/16 12:36:37;;;;;;;;;;;;;;;;;;5073078;28;1891;-68
2023/10/16 12:39:13;;;;;;;;;;;;;;;;;;5072777;28;932;-67
2023/10/16 12:41:38;;;;;;;;;;;;;;;;;;5073484;28;888;-67
2023/10/16 12:44:08;;;;;;;;;;;;;;;;;;5072518;28;836;-67
2023/10/16 12:46:34;;;;;;;;;;;;;;;;;;5071314;28;911;-67
2023/10/16 12:49:07;;;;;;;;;;;;;;;;;;5072476;28;967;-68
2023/10/16 12:51:34;;;;;;;;;;;;;;;;;;5072723;28;900;-68
2023/10/16 12:54:03;;;;;;;;;;;;;;;;;;5072160;28;1139;-68
2023/10/16 12:56:28;;;;;;;;;;;;;;;;;;5071708;28;1919;-68
2023/10/16 12:58:53;;;;;;;;;;;;;;;;;;5072758;28;1339;-68
2023/10/16 13:01:21;;;;;;;;;;;;;;;;;;5071440;28;1090;-68
2023/10/16 13:03:46;;;;;;;;;;;;;;;;;;5071130;28;1016;-68
2023/10/16 13:06:12;;;;;;;;;;;;;;;;;;5072616;28;912;-68
2023/10/16 13:08:37;;;;;;;;;;;;;;;;;;5070377;28;975;-68
2023/10/16 13:11:02;;;;;;;;;;;;;;;;;;5072151;28;1120;-68
2023/10/16 13:13:31;;;;;;;;;;;;;;;;;;5072436;28;865;-68
2023/10/16 13:15:58;;;;;;;;;;;;;;;;;;5072465;28;927;-69
2023/10/16 13:18:30;;;;;;;;;;;;;;;;;;5071642;28;1979;-68
2023/10/16 13:21:06;;;;;;;;;;;;;;;;;;5071790;28;864;-68
2023/10/16 13:23:34;;;;;;;;;;;;;;;;;;5070238;28;1423;-68
2023/10/16 13:26:00;;;;;;;;;;;;;;;;;;5070551;28;912;-68
2023/10/16 13:28:25;;;;;;;;;;;;;;;;;;5069517;28;951;-68
2023/10/16 13:30:52;;;;;;;;;;;;;;;;;;5071654;28;809;-68
2023/10/16 13:33:17;;;;;;;;;;;;;;;;;;5069941;28;841;-68
2023/10/16 13:35:43;;;;;;;;;;;;;;;;;;5071379;28;877;-68
2023/10/16 13:38:08;;;;;;;;;;;;;;;;;;5070591;28;1898;-68
2023/10/16 13:40:35;;;;;;;;;;;;;;;;;;5069796;28;825;-68
2023/10/16 13:43:01;;;;;;;;;;;;;;;;;;5071249;28;895;-68
2023/10/16 13:45:27;;;;;;;;;;;;;;;;;;5071038;28;893;-67
2023/10/16 13:47:53;;;;;;;;;;;;;;;;;;5069866;28;1254;-67
2023/10/16 13:50:25;;;;;;;;;;;;;;;;;;5062424;28;1333;-68
2023/10/16 13:52:51;;;;;;;;;;;;;;;;;;5030368;28;928;-68
2023/10/16 13:55:20;;;;;;;;;;;;;;;;;;5046758;28;1863;-67
2023/10/16 13:57:47;;;;;;;;;;;;;;;;;;5031710;28;1960;-68
2023/10/16 14:00:28;;;;;;;;;;;;;;;;;;5031746;28;938;-68
2023/10/16 14:02:54;;;;;;;;;;;;;;;;;;5032128;28;900;-67
2023/10/16 14:05:20;;;;;;;;;;;;;;;;;;5030157;28;1241;-68
2023/10/16 14:07:45;;;;;;;;;;;;;;;;;;5030413;28;1377;-67
2023/10/16 14:10:13;;;;;;;;;;;;;;;;;;5030070;28;1968;-68
2023/10/16 14:12:39;;;;;;;;;;;;;;;;;;5046814;28;916;-68
2023/10/16 14:15:05;;;;;;;;;;;;;;;;;;5031842;28;873;-67
2023/10/16 14:17:37;;;;;;;;;;;;;;;;;;5046239;28;1890;-67
2023/10/16 14:20:11;;;;;;;;;;;;;;;;;;5031049;28;916;-68
2023/10/16 14:22:43;;;;;;;;;;;;;;;;;;5030865;28;900;-68
2023/10/16 14:25:11;;;;;;;;;;;;;;;;;;5029634;28;1191;-67
2023/10/16 14:27:39;;;;;;;;;;;;;;;;;;5031322;28;857;-68
2023/10/16 14:30:05;;;;;;;;;;;;;;;;;;5046162;28;1493;-68
2023/10/16 14:32:31;;;;;;;;;;;;;;;;;;5030432;28;897;-68
2023/10/16 14:34:56;;;;;;;;;;;;;;;;;;5030806;28;900;-68
2023/10/16 14:37:21;;;;;;;;;;;;;;;;;;5046032;28;1949;-68
2023/10/16 14:39:51;;;;;;;;;;;;;;;;;;5033496;28;910;-68
2023/10/16 14:42:17;;;;;;;;;;;;;;;;;;5034374;28;943;-67
2023/10/16 14:44:45;;;;;;;;;;;;;;;;;;5034934;28;990;-67
2023/10/16 14:47:10;;;;;;;;;;;;;;;;;;5057745;28;1207;-67
2023/10/16 14:49:35;;;;;;;;;;;;;;;;;;5053388;28;878;-67
2023/10/16 14:52:02;;;;;;;;;;;;;;;;;;5056609;28;2366;-66
2023/10/16 14:54:28;;;;;;;;;;;;;;;;;;5062499;28;1079;-67
2023/10/16 14:56:58;;;;;;;;;;;;;;;;;;5062538;28;1984;-68
2023/10/16 14:59:29;;;;;;;;;;;;;;;;;;5072978;28;1156;-68
2023/10/16 15:01:54;;;;;;;;;;;;;;;;;;5073570;28;1247;-67
2023/10/16 15:04:20;;;;;;;;;;;;;;;;;;5056929;28;1274;-68
2023/10/16 15:06:46;;;;;;;;;;;;;;;;;;5057705;28;1211;-68
2023/10/16 15:09:18;;;;;;;;;;;;;;;;;;5073185;28;1460;-67
2023/10/16 15:11:45;;;;;;;;;;;;;;;;;;5074700;28;959;-68
2023/10/16 15:14:12;;;;;;;;;;;;;;;;;;5074628;28;887;-67
2023/10/16 15:16:37;;;;;;;;;;;;;;;;;;5073320;28;1910;-68
2023/10/16 15:19:07;;;;;;;;;;;;;;;;;;5074264;28;888;-67
2023/10/16 15:21:33;;;;;;;;;;;;;;;;;;5072162;28;924;-68
2023/10/16 15:23:58;;;;;;;;;;;;;;;;;;5074629;28;847;-68
2023/10/16 15:26:23;;;;;;;;;;;;;;;;;;5072519;28;1202;-67
2023/10/16 15:28:49;;;;;;;;;;;;;;;;;;5072916;28;908;-68
2023/10/16 15:31:15;;;;;;;;;;;;;;;;;;5074278;28;899;-67
2023/10/16 15:33:41;;;;;;;;;;;;;;;;;;5073881;28;978;-67
2023/10/16 15:36:07;;;;;;;;;;;;;;;;;;5056156;28;1356;-68
2023/10/16 15:38:32;;;;;;;;;;;;;;;;;;5072975;28;1965;-68
2023/10/16 15:41:00;;;;;;;;;;;;;;;;;;5074351;28;801;-68
2023/10/16 15:43:25;;;;;;;;;;;;;;;;;;5072751;28;1393;-68
2023/10/16 15:45:51;;;;;;;;;;;;;;;;;;5074148;28;947;-68
2023/10/16 15:48:16;;;;;;;;;;;;;;;;;;5072150;28;924;-68
2023/10/16 15:50:42;;;;;;;;;;;;;;;;;;5071106;28;1353;-68
2023/10/16 15:53:08;;;;;;;;;;;;;;;;;;5072576;28;1317;-67
2023/10/16 15:55:35;;;;;;;;;;;;;;;;;;5073647;28;999;-68
2023/10/16 15:58:00;;;;;;;;;;;;;;;;;;5073943;28;1906;-67
2023/10/16 16:00:26;;;;;;;;;;;;;;;;;;5073876;28;805;-67
2023/10/16 16:03:01;;;;;;;;;;;;;;;;;;5072175;28;1229;-67
2023/10/16 16:05:27;;;;;;;;;;;;;;;;;;5072981;28;836;-67
2023/10/16 16:07:56;;;;;;;;;;;;;;;;;;5067715;28;1291;-68
2023/10/16 16:10:26;;;;;;;;;;;;;;;;;;5059732;28;1505;-68
2023/10/16 16:12:52;;;;;;;;;;;;;;;;;;5049441;28;1124;-68
2023/10/16 16:15:17;;;;;;;;;;;;;;;;;;5067942;28;1144;-67
2023/10/16 16:17:44;;;;;;;;;;;;;;;;;;5069807;28;1918;-68
2023/10/16 16:20:15;;;;;;;;;;;;;;;;;;5070526;28;1226;-68
2023/10/16 16:22:40;;;;;;;;;;;;;;;;;;5073725;28;884;-67
2023/10/16 16:25:07;;;;;;;;;;;;;;;;;;5073554;28;1043;-67
2023/10/16 16:27:32;;;;;;;;;;;;;;;;;;5071434;28;1218;-68
2023/10/16 16:29:57;;;;;;;;;;;;;;;;;;5072797;28;999;-67
2023/10/16 16:32:25;;;;;;;;;;;;;;;;;;5072561;28;857;-68
2023/10/16 16:34:50;;;;;;;;;;;;;;;;;;5073272;28;895;-68
2023/10/16 16:37:16;;;;;;;;;;;;;;;;;;5072978;28;1967;-68
2023/10/16 16:39:41;;;;;;;;;;;;;;;;;;5073192;28;1196;-68
2023/10/16 16:42:09;;;;;;;;;;;;;;;;;;5073155;28;982;-68
2023/10/16 16:44:35;;;;;;;;;;;;;;;;;;5071533;28;947;-68
2023/10/16 16:47:00;;;;;;;;;;;;;;;;;;5072988;28;934;-67
2023/10/16 16:49:25;;;;;;;;;;;;;;;;;;5073348;28;843;-68
2023/10/16 16:51:51;;;;;;;;;;;;;;;;;;5073079;28;840;-68
2023/10/16 16:54:16;;;;;;;;;;;;;;;;;;5073153;28;990;-68
2023/10/16 16:56:42;;;;;;;;;;;;;;;;;;5055856;28;1909;-68
2023/10/16 16:59:12;;;;;;;;;;;;;;;;;;5073353;28;1089;-68
2023/10/16 17:01:38;;;;;;;;;;;;;;;;;;5073237;28;997;-68
2023/10/16 17:04:03;;;;;;;;;;;;;;;;;;5073379;28;833;-69
2023/10/16 17:06:30;;;;;;;;;;;;;;;;;;5072977;28;995;-68
2023/10/16 17:08:56;;;;;;;;;;;;;;;;;;5072005;28;918;-68
2023/10/16 17:11:21;;;;;;;;;;;;;;;;;;5071719;28;877;-68
2023/10/16 17:13:46;;;;;;;;;;;;;;;;;;5072581;28;824;-68
2023/10/16 17:16:12;;;;;;;;;;;;;;;;;;5071782;28;1125;-69
2023/10/16 17:18:37;;;;;;;;;;;;;;;;;;5071405;28;2001;-68
2023/10/16 17:21:05;;;;;;;;;;;;;;;;;;5072797;28;816;-68
2023/10/16 17:23:31;;;;;;;;;;;;;;;;;;5054757;28;1248;-68
2023/10/16 17:25:57;;;;;;;;;;;;;;;;;;5072244;28;912;-68
2023/10/16 17:28:22;;;;;;;;;;;;;;;;;;5055021;28;1772;-68
2023/10/16 17:30:48;;;;;;;;;;;;;;;;;;5072347;28;1255;-68
2023/10/16 17:33:13;;;;;;;;;;;;;;;;;;5054548;28;1258;-68
2023/10/16 17:35:39;;;;;;;;;;;;;;;;;;5071782;28;1062;-68
2023/10/16 17:38:09;;;;;;;;;;;;;;;;;;5071594;28;1957;-68
2023/10/16 17:40:36;;;;;;;;;;;;;;;;;;5054193;28;1210;-68
2023/10/16 17:43:01;;;;;;;;;;;;;;;;;;5072035;28;781;-68
2023/10/16 17:45:26;;;;;;;;;;;;;;;;;;5072007;28;816;-68
2023/10/16 17:47:52;;;;;;;;;;;;;;;;;;5069625;28;1183;-68
2023/10/16 17:50:21;;;;;;;;;;;;;;;;;;5070138;28;869;-68
2023/10/16 17:52:49;;;;;;;;;;;;;;;;;;5064512;28;1206;-68
2023/10/16 17:55:15;;;;;;;;;;;;;;;;;;5068333;28;1236;-68
2023/10/16 17:57:41;;;;;;;;;;;;;;;;;;5071709;28;1905;-68
2023/10/16 18:00:09;;;;;;;;;;;;;;;;;;5070032;28;1199;-68
2023/10/16 18:02:34;;;;;;;;;;;;;;;;;;5053777;28;1431;-69
2023/10/16 18:05:00;;;;;;;;;;;;;;;;;;5069952;28;1317;-69
2023/10/16 18:07:25;;;;;;;;;;;;;;;;;;5069731;28;918;-69
2023/10/16 18:09:52;;;;;;;;;;;;;;;;;;5071493;28;856;-69
2023/10/16 18:12:20;;;;;;;;;;;;;;;;;;5069590;28;1311;-68
2023/10/16 18:14:46;;;;;;;;;;;;;;;;;;5070846;28;907;-69
2023/10/16 18:17:12;;;;;;;;;;;;;;;;;;5070916;28;1914;-69
2023/10/16 18:19:39;;;;;;;;;;;;;;;;;;5070833;28;826;-69
2023/10/16 18:22:05;;;;;;;;;;;;;;;;;;5070132;28;915;-69
2023/10/16 18:24:34;;;;;;;;;;;;;;;;;;5070935;28;884;-68
2023/10/16 18:27:00;;;;;;;;;;;;;;;;;;5070147;28;932;-69
2023/10/16 18:29:25;;;;;;;;;;;;;;;;;;5071202;28;888;-68
2023/10/16 18:31:52;;;;;;;;;;;;;;;;;;5071154;28;995;-74
2023/10/16 18:34:18;;;;;;;;;;;;;;;;;;5068863;28;1191;-73
2023/10/16 18:36:46;;;;;;;;;;;;;;;;;;5037407;28;1918;-68
2023/10/16 18:39:13;;;;;;;;;;;;;;;;;;5067080;28;1188;-68
2023/10/16 18:41:40;;;;;;;;;;;;;;;;;;5067440;28;1261;-68
2023/10/16 18:44:06;;;;;;;;;;;;;;;;;;5069509;28;1123;-68
2023/10/16 18:46:31;;;;;;;;;;;;;;;;;;5070047;28;1178;-68
2023/10/16 18:48:59;;;;;;;;;;;;;;;;;;5072193;28;1003;-68
2023/10/16 18:51:25;;;;;;;;;;;;;;;;;;5071900;28;857;-68
2023/10/16 18:53:50;;;;;;;;;;;;;;;;;;5071077;28;1366;-68
2023/10/16 18:56:15;;;;;;;;;;;;;;;;;;5071673;28;958;-68
2023/10/16 18:58:41;;;;;;;;;;;;;;;;;;5072154;28;1922;-68
2023/10/16 19:01:10;;;;;;;;;;;;;;;;;;5071115;28;944;-72
2023/10/16 19:03:35;;;;;;;;;;;;;;;;;;5072904;28;952;-71
2023/10/16 19:06:03;;;;;;;;;;;;;;;;;;5052637;28;1167;-70
2023/10/16 19:08:28;;;;;;;;;;;;;;;;;;5055779;28;1137;-70
2023/10/16 19:10:57;;;;;;;;;;;;;;;;;;5048296;28;1243;-70
2023/10/16 19:13:22;;;;;;;;;;;;;;;;;;5068884;28;1338;-69